Time;durP1;ratioP1;P1;durP2;ratioP2;P2;SDS_P1;SDS_P2;PMS_P1;PMS_P2;Temp;Humidity;BMP_temperature;BMP_pressure;BME280_temperature;BME280_humidity;BME280_pressure;Samples;Min_cycle;Max_cycle;Signal;HPM_P1;HPM_P2
2021/06/30 00:02:21;;;;;;;20.35;14.35;;;;;;;19.50;60.97;99657.50;1697396;81;27546;-67
2021/06/30 00:04:48;;;;;;;20.15;14.28;;;;;;;19.46;61.30;99649.86;1697066;80;25894;-67
2021/06/30 00:07:15;;;;;;;18.00;14.38;;;;;;;19.42;61.41;99651.78;1665221;82;26135;-66
2021/06/30 00:09:41;;;;;;;19.10;14.23;;;;;;;19.39;61.39;99653.34;1779038;79;25775;-66
2021/06/30 00:12:08;;;;;;;18.87;14.07;;;;;;;19.37;61.53;99656.26;1768403;79;25710;-67
2021/06/30 00:14:35;;;;;;;19.65;14.28;;;;;;;19.36;61.95;99655.48;1766022;79;27369;-67
2021/06/30 00:17:03;;;;;;;17.37;13.62;;;;;;;19.33;61.71;99656.83;1770600;79;25839;-67
2021/06/30 00:19:30;;;;;;;19.32;14.45;;;;;;;19.31;61.76;99655.84;1766196;78;25778;-67
2021/06/30 00:21:56;;;;;;;19.00;14.15;;;;;;;19.29;62.08;99658.75;1770563;79;25909;-67
2021/06/30 00:24:23;;;;;;;18.57;14.58;;;;;;;19.25;62.07;99654.62;1776670;79;25910;-67
2021/06/30 00:26:49;;;;;;;21.07;14.63;;;;;;;19.21;62.09;99651.87;1767600;79;27680;-68
2021/06/30 00:29:15;;;;;;;16.85;13.70;;;;;;;19.17;62.35;99646.96;1767103;78;25734;-66
2021/06/30 00:31:42;;;;;;;17.65;13.78;;;;;;;19.13;62.27;99659.06;1775347;78;26014;-67
2021/06/30 00:34:08;;;;;;;20.17;13.75;;;;;;;19.09;62.26;99665.89;1770082;79;27760;-66
2021/06/30 00:36:37;;;;;;;16.97;14.28;;;;;;;19.06;62.51;99661.77;1765724;79;25777;-66
2021/06/30 00:39:06;;;;;;;18.00;14.87;;;;;;;19.01;62.72;99662.31;1776979;79;27937;-66
2021/06/30 00:41:33;;;;;;;16.93;13.88;;;;;;;18.95;62.68;99655.63;1773742;79;25811;-66
2021/06/30 00:44:00;;;;;;;18.15;13.65;;;;;;;18.92;63.09;99654.23;1779491;79;25847;-66
2021/06/30 00:46:29;;;;;;;19.98;14.20;;;;;;;18.88;63.03;99658.30;1774915;79;25739;-66
2021/06/30 00:48:56;;;;;;;16.02;13.50;;;;;;;18.85;62.83;99653.02;1769999;79;25945;-66
2021/06/30 00:51:24;;;;;;;18.60;13.90;;;;;;;18.82;62.97;99649.66;1749457;79;27294;-66
2021/06/30 00:53:52;;;;;;;17.77;13.40;;;;;;;18.78;63.30;99651.56;1761847;79;26129;-66
2021/06/30 00:56:25;;;;;;;20.65;14.05;;;;;;;18.75;63.33;99644.70;1783378;79;25858;-66
2021/06/30 00:58:55;;;;;;;19.07;14.05;;;;;;;18.71;63.51;99639.19;1779545;79;25740;-67
2021/06/30 01:01:23;;;;;;;20.80;14.03;;;;;;;18.67;63.56;99643.25;1771680;78;25893;-66
2021/06/30 01:03:50;;;;;;;19.15;14.55;;;;;;;18.63;63.72;99634.23;1752579;79;27291;-67
2021/06/30 01:06:18;;;;;;;22.15;14.55;;;;;;;18.59;63.92;99627.95;1785631;79;25759;-66
2021/06/30 01:08:47;;;;;;;16.95;14.73;;;;;;;18.56;63.90;99625.16;1755171;80;25886;-66
2021/06/30 01:11:15;;;;;;;18.85;14.83;;;;;;;18.52;63.89;99625.13;1757184;80;25861;-66
2021/06/30 01:13:42;;;;;;;16.82;13.58;;;;;;;18.52;64.21;99629.83;1676128;82;25801;-66
2021/06/30 01:16:09;;;;;;;14.85;13.28;;;;;;;18.47;64.17;99619.44;1709691;82;27312;-66
2021/06/30 01:18:36;;;;;;;17.23;13.18;;;;;;;18.45;64.26;99616.27;1693654;82;25942;-66
2021/06/30 01:21:07;;;;;;;18.17;13.75;;;;;;;18.41;64.50;99615.47;1684624;82;25744;-66
2021/06/30 01:23:34;;;;;;;19.37;14.45;;;;;;;18.39;64.43;99611.52;1709561;81;25835;-66
2021/06/30 01:26:00;;;;;;;17.27;13.90;;;;;;;18.37;64.61;99607.02;1715546;82;26062;-67
2021/06/30 01:28:27;;;;;;;17.23;13.72;;;;;;;18.34;64.75;99603.09;1673802;82;27328;-67
2021/06/30 01:30:55;;;;;;;20.27;14.20;;;;;;;18.33;64.87;99599.36;1711975;81;26557;-66
2021/06/30 01:33:22;;;;;;;20.02;14.75;;;;;;;18.29;65.08;99589.75;1710421;81;26501;-66
2021/06/30 01:35:49;;;;;;;16.65;13.43;;;;;;;18.27;65.05;99592.87;1719409;81;26340;-66
2021/06/30 01:38:23;;;;;;;17.48;14.15;;;;;;;18.26;65.04;99591.28;1721128;81;25804;-66
2021/06/30 01:40:51;;;;;;;17.87;14.05;;;;;;;18.24;65.14;99586.77;1724555;81;27314;-66
2021/06/30 01:43:18;;;;;;;17.80;13.25;;;;;;;18.22;65.19;99591.84;1707389;82;26151;-66
2021/06/30 01:45:45;;;;;;;17.05;13.72;;;;;;;18.22;65.34;99591.06;1705660;82;26561;-67
2021/06/30 01:48:13;;;;;;;15.30;13.10;;;;;;;18.20;65.35;99587.34;1689229;81;26102;-66
2021/06/30 01:50:39;;;;;;;17.57;14.15;;;;;;;18.18;65.33;99584.17;1703956;82;26041;-66
2021/06/30 01:53:06;;;;;;;16.52;13.25;;;;;;;18.17;65.40;99579.09;1713767;81;27437;-67
2021/06/30 01:55:35;;;;;;;14.78;12.82;;;;;;;18.17;65.46;99581.25;1717430;81;26496;-66
2021/06/30 01:58:02;;;;;;;18.77;13.97;;;;;;;18.16;65.58;99581.63;1687020;82;25964;-66
2021/06/30 02:00:31;;;;;;;18.32;13.53;;;;;;;18.14;65.51;99579.26;1711254;81;27760;-67
2021/06/30 02:03:02;;;;;;;17.23;13.93;;;;;;;18.12;65.77;99577.48;1707065;82;25926;-66
2021/06/30 02:05:29;;;;;;;18.02;14.50;;;;;;;18.09;65.57;99575.50;1697475;81;27353;-66
2021/06/30 02:08:00;;;;;;;15.80;14.18;;;;;;;18.09;65.57;99585.08;1753687;80;25933;-66
2021/06/30 02:10:28;;;;;;;14.63;13.05;;;;;;;18.08;65.82;99584.86;1752707;80;25969;-66
2021/06/30 02:12:57;;;;;;;15.33;13.67;;;;;;;18.04;65.88;99587.56;1723179;81;26416;-66
2021/06/30 02:15:28;;;;;;;16.10;13.75;;;;;;;18.02;65.94;99585.80;1699274;82;25849;-66
2021/06/30 02:17:58;;;;;;;17.90;13.68;;;;;;;18.01;65.93;99576.59;1708453;81;27337;-66
2021/06/30 02:20:25;;;;;;;20.85;13.72;;;;;;;17.99;65.98;99572.86;1712906;81;25693;-66
2021/06/30 02:22:55;;;;;;;14.87;13.25;;;;;;;17.99;66.01;99570.71;1706581;81;26669;-66
2021/06/30 02:25:30;;;;;;;16.75;13.03;;;;;;;18.00;66.13;99569.56;1775156;78;26270;-66
2021/06/30 02:27:57;;;;;;;17.17;15.05;;;;;;;17.98;66.27;99568.56;1754329;79;25920;-66
2021/06/30 02:30:33;;;;;;;18.57;14.03;;;;;;;17.97;66.37;99556.04;1768476;79;27317;-66
2021/06/30 02:33:01;;;;;;;19.60;13.60;;;;;;;17.98;66.42;99564.46;1755908;80;25841;-66
2021/06/30 02:35:29;;;;;;;15.15;13.65;;;;;;;17.98;66.58;99564.46;1772378;79;25962;-67
2021/06/30 02:38:00;;;;;;;20.40;14.10;;;;;;;18.00;66.68;99564.09;1770752;79;25941;-66
2021/06/30 02:40:28;;;;;;;20.23;15.88;;;;;;;18.01;66.70;99558.21;1776009;79;26530;-66
2021/06/30 02:42:56;;;;;;;17.48;13.83;;;;;;;18.02;66.67;99561.17;1768411;79;27327;-66
2021/06/30 02:45:23;;;;;;;20.20;15.30;;;;;;;18.05;66.82;99565.89;1769561;79;26118;-66
2021/06/30 02:47:51;;;;;;;19.12;15.93;;;;;;;18.04;66.70;99565.67;1771959;78;26649;-66
2021/06/30 02:50:19;;;;;;;16.97;14.18;;;;;;;18.08;66.70;99571.17;1784975;78;25883;-66
2021/06/30 02:52:48;;;;;;;16.25;12.98;;;;;;;18.09;66.77;99572.77;1776464;78;25724;-66
2021/06/30 02:55:15;;;;;;;17.00;13.85;;;;;;;18.11;66.77;99571.80;1773097;79;27455;-66
2021/06/30 02:57:44;;;;;;;17.87;12.55;;;;;;;18.13;66.91;99575.52;1774964;78;25850;-67
2021/06/30 03:00:21;;;;;;;20.52;16.45;;;;;;;18.15;66.98;99578.66;1754005;79;26394;-67
2021/06/30 03:02:49;;;;;;;15.48;13.88;;;;;;;18.18;66.92;99583.39;1771483;79;25899;-67
2021/06/30 03:05:16;;;;;;;22.65;16.55;;;;;;;18.21;67.05;99575.20;1763159;78;25695;-67
2021/06/30 03:07:42;;;;;;;17.52;15.23;;;;;;;18.25;66.97;99580.15;1739800;79;27387;-67
2021/06/30 03:10:13;;;;;;;17.37;13.75;;;;;;;18.31;67.10;99581.17;1743154;80;26547;-67
2021/06/30 03:12:40;;;;;;;16.52;14.78;;;;;;;18.35;67.15;99581.97;1757224;80;25741;-67
2021/06/30 03:15:10;;;;;;;19.35;17.05;;;;;;;18.40;67.16;99586.50;1742550;80;25899;-66
2021/06/30 03:17:37;;;;;;;17.77;14.80;;;;;;;18.45;67.10;99593.00;1776237;79;25795;-66
2021/06/30 03:20:08;;;;;;;21.40;15.25;;;;;;;18.52;67.21;99593.64;1772526;79;27314;-66
2021/06/30 03:22:36;;;;;;;17.80;14.13;;;;;;;18.60;67.36;99589.80;1774796;79;26021;-66
2021/06/30 03:25:04;;;;;;;20.77;14.38;;;;;;;18.70;67.47;99588.30;1782286;79;25757;-67
2021/06/30 03:27:30;;;;;;;19.73;15.75;;;;;;;18.79;67.42;99577.78;1757799;79;26442;-66
2021/06/30 03:29:57;;;;;;;23.67;15.65;;;;;;;18.86;67.43;99566.11;1771524;79;25886;-66
2021/06/30 03:32:23;;;;;;;18.73;15.25;;;;;;;18.95;67.28;99558.36;1738116;79;28249;-67
2021/06/30 03:34:50;;;;;;;16.67;14.53;;;;;;;19.06;67.37;99567.98;1772896;79;26422;-67
2021/06/30 03:37:17;;;;;;;18.67;15.90;;;;;;;19.16;67.27;99571.96;1788881;79;25843;-67
2021/06/30 03:39:44;;;;;;;16.32;14.63;;;;;;;19.25;66.84;99575.72;1781541;79;25799;-67
2021/06/30 03:42:10;;;;;;;16.32;14.58;;;;;;;19.35;66.80;99581.83;1768936;79;25813;-67
2021/06/30 03:44:37;;;;;;;17.07;14.18;;;;;;;19.46;66.52;99594.20;1768659;79;28413;-67
2021/06/30 03:47:04;;;;;;;13.90;12.50;;;;;;;19.55;66.16;99594.64;1733653;80;25846;-67
2021/06/30 03:49:30;;;;;;;14.83;13.32;;;;;;;19.62;65.88;99600.14;1733394;80;25961;-67
2021/06/30 03:51:57;;;;;;;14.18;12.50;;;;;;;19.71;65.93;99609.38;1756250;80;26084;-67
2021/06/30 03:54:25;;;;;;;15.90;12.68;;;;;;;19.78;65.42;99632.17;1738504;80;27061;-67
2021/06/30 03:56:53;;;;;;;17.57;12.18;;;;;;;19.86;65.38;99650.03;1730686;80;27236;-67
2021/06/30 03:59:23;;;;;;;13.43;11.22;;;;;;;19.88;64.94;99666.29;1740500;80;25922;-67
2021/06/30 04:01:53;;;;;;;13.50;12.18;;;;;;;19.92;64.67;99682.77;1725353;80;25507;-67
2021/06/30 04:04:20;;;;;;;12.53;11.22;;;;;;;19.96;64.51;99697.30;1723756;81;25920;-67
2021/06/30 04:06:47;;;;;;;15.32;12.05;;;;;;;19.98;64.21;99689.46;1726041;80;25832;-67
2021/06/30 04:09:15;;;;;;;14.50;12.20;;;;;;;20.00;64.13;99679.47;1725176;80;27263;-67
2021/06/30 04:11:43;;;;;;;13.40;12.00;;;;;;;20.04;64.04;99677.51;1733074;80;25899;-67
2021/06/30 04:14:09;;;;;;;14.23;11.45;;;;;;;20.07;63.98;99673.39;1684395;82;25758;-67
2021/06/30 04:16:37;;;;;;;16.27;13.10;;;;;;;20.10;63.94;99675.38;1704064;82;25870;-67
2021/06/30 04:19:05;;;;;;;19.42;13.50;;;;;;;20.13;63.79;99682.84;1725706;81;25903;-66
2021/06/30 04:21:32;;;;;;;16.23;12.80;;;;;;;20.17;63.60;99676.57;1764506;79;27288;-66
2021/06/30 04:23:59;;;;;;;17.45;12.73;;;;;;;20.19;63.62;99672.84;1776306;79;26366;-66
2021/06/30 04:26:25;;;;;;;18.65;12.80;;;;;;;20.23;63.60;99670.91;1739477;80;26040;-66
2021/06/30 04:28:51;;;;;;;14.85;12.35;;;;;;;20.30;63.53;99671.69;1753476;80;25880;-66
2021/06/30 04:31:19;;;;;;;16.87;12.60;;;;;;;20.33;63.31;99663.27;1781490;78;25965;-66
2021/06/30 04:33:45;;;;;;;13.43;12.03;;;;;;;20.36;63.36;99655.60;1777319;79;27386;-66
2021/06/30 04:36:12;;;;;;;14.25;12.15;;;;;;;20.38;63.18;99655.22;1782010;79;25951;-66
2021/06/30 04:38:38;;;;;;;14.87;12.50;;;;;;;20.41;63.29;99654.44;1772979;79;25971;-66
2021/06/30 04:41:04;;;;;;;12.53;11.22;;;;;;;20.47;63.41;99650.14;1773671;79;26335;-66
2021/06/30 04:43:31;;;;;;;13.15;10.95;;;;;;;20.54;63.29;99652.88;1753561;80;25717;-66
2021/06/30 04:45:58;;;;;;;11.97;10.78;;;;;;;20.59;63.24;99644.25;1746509;80;27305;-66
2021/06/30 04:48:24;;;;;;;12.50;11.18;;;;;;;20.67;63.22;99650.54;1748898;80;27226;-67
2021/06/30 04:50:51;;;;;;;10.80;9.70;;;;;;;20.71;63.29;99636.23;1752952;80;25769;-67
2021/06/30 04:53:20;;;;;;;12.65;10.55;;;;;;;20.81;63.26;99646.42;1762351;80;25815;-67
2021/06/30 04:55:48;;;;;;;11.65;10.43;;;;;;;20.88;63.31;99648.38;1758451;80;26253;-65
2021/06/30 04:58:15;;;;;;;12.43;10.68;;;;;;;20.92;63.17;99639.53;1753661;80;27397;-63
2021/06/30 05:00:43;;;;;;;13.43;10.48;;;;;;;20.95;63.08;99640.13;1728108;80;25709;-65
2021/06/30 05:03:09;;;;;;;15.32;11.50;;;;;;;20.98;62.99;99637.19;1733458;80;26454;-67
2021/06/30 05:05:36;;;;;;;11.93;10.72;;;;;;;20.98;63.03;99631.09;1742383;80;27763;-64
2021/06/30 05:08:04;;;;;;;12.03;10.38;;;;;;;21.03;63.12;99632.66;1704984;81;25757;-68
2021/06/30 05:10:32;;;;;;;12.53;10.00;;;;;;;21.09;63.24;99620.06;1686337;81;27306;-69
2021/06/30 05:12:58;;;;;;;13.58;10.50;;;;;;;21.18;63.20;99616.32;1732438;81;25929;-67
2021/06/30 05:15:25;;;;;;;14.93;11.00;;;;;;;21.29;63.16;99606.65;1714810;81;26398;-64
2021/06/30 05:17:51;;;;;;;14.70;10.68;;;;;;;21.36;63.08;99607.22;1730449;80;25714;-65
2021/06/30 05:20:18;;;;;;;12.33;10.43;;;;;;;21.40;63.05;99607.41;1730524;80;25934;-65
2021/06/30 05:22:45;;;;;;;13.93;11.00;;;;;;;21.43;62.99;99603.05;1715783;81;27423;-66
2021/06/30 05:25:13;;;;;;;14.53;11.48;;;;;;;21.45;62.82;99593.23;1738070;80;26327;-65
2021/06/30 05:27:40;;;;;;;11.45;10.25;;;;;;;21.50;63.04;99591.27;1739305;80;26473;-65
2021/06/30 05:30:27;;;;;;;13.72;10.32;;;;;;;21.53;62.97;99583.00;1709501;81;25974;-63
2021/06/30 05:32:54;;;;;;;16.65;10.78;;;;;;;21.57;62.97;99574.72;1751977;80;25891;-65
2021/06/30 05:35:21;;;;;;;15.88;10.75;;;;;;;21.64;63.07;99571.95;1753605;80;26513;-65
2021/06/30 05:37:49;;;;;;;13.58;10.93;;;;;;;21.69;63.08;99566.59;1736297;80;25822;-65
2021/06/30 05:40:16;;;;;;;16.77;10.77;;;;;;;21.76;63.01;99562.42;1747259;80;25865;-65
2021/06/30 05:42:43;;;;;;;15.38;10.85;;;;;;;21.84;63.20;99565.33;1820837;77;25996;-65
2021/06/30 05:45:16;;;;;;;14.07;10.58;;;;;;;21.91;63.27;99556.23;1811845;76;25683;-65
2021/06/30 05:47:39;;;;;;;;;;;;;;;21.99;63.00;99563.27;1812987;77;27526;-65
2021/06/30 05:50:07;;;;;;;13.08;9.98;;;;;;;22.06;63.05;99545.91;1798621;77;26203;-66
2021/06/30 05:52:34;;;;;;;14.68;10.63;;;;;;;22.09;62.84;99535.47;1788024;77;26493;-66
2021/06/30 05:55:00;;;;;;;12.18;10.98;;;;;;;22.14;62.85;99527.55;1793038;77;27809;-65
2021/06/30 05:57:27;;;;;;;13.18;11.05;;;;;;;22.21;62.79;99522.58;1801326;77;25904;-66
2021/06/30 05:59:53;;;;;;;11.88;10.63;;;;;;;22.26;62.81;99513.09;1810076;77;27360;-66
2021/06/30 06:02:20;;;;;;;17.92;10.35;;;;;;;22.30;62.82;99507.75;1803437;77;26328;-66
2021/06/30 06:04:46;;;;;;;15.48;11.10;;;;;;;22.35;63.00;99502.41;1824951;77;25659;-65
2021/06/30 06:07:13;;;;;;;15.20;10.70;;;;;;;22.40;62.89;99489.56;1770538;78;25687;-65
2021/06/30 06:09:39;;;;;;;15.10;11.22;;;;;;;22.46;62.96;99481.63;1778769;77;25855;-65
2021/06/30 06:12:07;;;;;;;12.20;11.00;;;;;;;22.51;62.87;99478.45;1805965;77;27366;-66
2021/06/30 06:14:33;;;;;;;15.23;10.48;;;;;;;22.54;63.10;99477.03;1791333;77;26067;-66
2021/06/30 06:16:59;;;;;;;15.13;11.03;;;;;;;22.51;62.65;99470.19;1805286;77;25847;-66
2021/06/30 06:19:26;;;;;;;12.93;10.53;;;;;;;22.48;62.72;99467.64;1801626;77;25756;-66
2021/06/30 06:21:53;;;;;;;10.58;9.50;;;;;;;22.45;62.85;99457.44;1790077;77;25772;-66
2021/06/30 06:24:19;;;;;;;14.38;11.28;;;;;;;22.46;62.89;99456.83;1802741;77;27372;-66
2021/06/30 06:26:48;;;;;;;14.33;10.98;;;;;;;22.46;62.98;99443.86;1800515;77;25904;-66
2021/06/30 06:29:14;;;;;;;12.55;10.65;;;;;;;22.43;63.24;99446.66;1793843;77;25790;-66
2021/06/30 06:31:41;;;;;;;13.72;11.18;;;;;;;22.37;63.36;99447.67;1721252;80;25856;-67
2021/06/30 06:34:08;;;;;;;15.83;11.08;;;;;;;22.30;63.41;99448.53;1774736;78;25929;-67
2021/06/30 06:36:35;;;;;;;12.58;11.33;;;;;;;22.26;63.71;99446.39;1739442;80;27414;-67
2021/06/30 06:39:04;;;;;;;13.70;11.75;;;;;;;22.23;63.94;99437.56;1793224;77;25789;-67
2021/06/30 06:41:32;;;;;;;16.70;11.33;;;;;;;22.19;64.12;99430.72;1793164;77;25859;-68
2021/06/30 06:43:59;;;;;;;13.08;11.73;;;;;;;22.18;64.43;99425.61;1824659;77;25814;-67
2021/06/30 06:46:25;;;;;;;14.45;11.22;;;;;;;22.20;64.43;99424.03;1811777;77;26719;-67
2021/06/30 06:48:52;;;;;;;14.58;11.80;;;;;;;22.22;64.57;99420.88;1799240;77;27337;-66
2021/06/30 06:51:18;;;;;;;13.48;12.07;;;;;;;22.22;64.72;99415.94;1800388;77;26526;-68
2021/06/30 06:53:45;;;;;;;17.57;11.80;;;;;;;22.19;65.02;99401.03;1806319;77;25814;-68
2021/06/30 06:56:13;;;;;;;17.95;12.75;;;;;;;22.18;65.10;99399.45;1795103;77;26120;-68
2021/06/30 06:58:40;;;;;;;;;;;;;;;22.21;65.70;99400.02;1805718;78;26032;-67
2021/06/30 07:01:08;;;;;;;18.55;11.93;;;;;;;22.26;66.08;99398.19;1785791;77;27304;-68
2021/06/30 07:03:35;;;;;;;15.40;12.07;;;;;;;22.32;65.88;99414.50;1811830;77;25582;-66
2021/06/30 07:06:01;;;;;;;15.00;12.13;;;;;;;22.37;65.67;99433.91;1808029;77;25921;-68
2021/06/30 07:08:28;;;;;;;13.80;12.40;;;;;;;22.37;65.79;99432.52;1810062;77;25869;-68
2021/06/30 07:10:54;;;;;;;13.55;12.15;;;;;;;22.41;66.10;99420.09;1737051;80;25807;-67
2021/06/30 07:13:21;;;;;;;20.45;12.68;;;;;;;22.48;66.47;99396.61;1734079;80;28727;-67
2021/06/30 07:15:47;;;;;;;16.55;12.10;;;;;;;22.56;66.56;99398.09;1760683;80;26645;-66
2021/06/30 07:18:15;;;;;;;14.55;12.30;;;;;;;22.67;66.22;99397.34;1722961;81;25777;-67
2021/06/30 07:20:43;;;;;;;14.90;12.82;;;;;;;22.82;66.41;99402.08;1776423;78;26453;-66
2021/06/30 07:23:11;;;;;;;13.30;11.90;;;;;;;22.98;66.12;99428.27;1754821;79;26138;-67
2021/06/30 07:25:39;;;;;;;13.03;11.63;;;;;;;23.13;65.87;99444.83;1741714;81;27335;-67
2021/06/30 07:28:07;;;;;;;15.93;11.48;;;;;;;23.30;65.47;99456.81;1796177;78;25759;-67
2021/06/30 07:30:33;;;;;;;16.42;10.85;;;;;;;23.55;65.53;99468.07;1798100;78;25932;-67
2021/06/30 07:33:01;;;;;;;14.98;10.65;;;;;;;23.80;64.99;99469.87;1811592;77;25922;-68
2021/06/30 07:35:27;;;;;;;13.25;10.88;;;;;;;24.07;63.79;99497.27;1801716;77;26427;-68
2021/06/30 07:37:54;;;;;;;15.03;11.45;;;;;;;24.16;63.36;99495.54;1795465;77;27305;-67
2021/06/30 07:40:20;;;;;;;15.35;11.28;;;;;;;24.37;63.09;99504.65;1803399;77;25843;-67
2021/06/30 07:42:47;;;;;;;12.40;10.80;;;;;;;24.59;63.04;99502.30;1795730;77;26202;-68
2021/06/30 07:45:14;;;;;;;12.75;11.45;;;;;;;24.75;61.61;99509.89;1801835;77;25760;-66
2021/06/30 07:47:41;;;;;;;11.88;10.65;;;;;;;24.79;61.08;99511.97;1782398;77;25962;-70
2021/06/30 07:50:09;;;;;;;11.63;10.48;;;;;;;24.79;60.75;99505.86;1804093;77;27321;-67
2021/06/30 07:52:35;;;;;;;12.05;10.85;;;;;;;24.85;60.72;99512.27;1752829;77;25801;-67
2021/06/30 07:55:03;;;;;;;11.78;10.68;;;;;;;24.87;60.53;99507.09;1806633;77;25610;-68
2021/06/30 07:57:30;;;;;;;14.00;10.58;;;;;;;25.06;60.99;99528.42;1799250;77;25814;-67
2021/06/30 07:59:57;;;;;;;12.15;10.88;;;;;;;25.26;60.32;99522.91;1822513;78;25830;-67
2021/06/30 08:02:24;;;;;;;14.63;11.85;;;;;;;25.48;59.90;99536.28;1806142;77;27297;-68
2021/06/30 08:04:50;;;;;;;12.00;10.80;;;;;;;25.64;59.76;99532.17;1802140;77;25888;-67
2021/06/30 08:07:17;;;;;;;14.45;11.50;;;;;;;25.80;59.45;99544.48;1754161;80;25910;-69
2021/06/30 08:09:43;;;;;;;12.95;11.22;;;;;;;25.79;58.81;99529.83;1824949;77;26398;-68
2021/06/30 08:12:10;;;;;;;12.78;11.57;;;;;;;25.91;59.00;99535.30;1800532;78;25556;-68
2021/06/30 08:14:36;;;;;;;12.25;11.15;;;;;;;26.11;59.00;99538.02;1809326;77;27285;-68
2021/06/30 08:17:04;;;;;;;13.50;11.80;;;;;;;26.35;58.97;99537.20;1795664;77;25877;-68
2021/06/30 08:19:31;;;;;;;13.15;10.98;;;;;;;26.61;58.82;99537.33;1796549;77;26506;-68
2021/06/30 08:21:58;;;;;;;18.73;10.85;;;;;;;26.75;58.34;99547.28;1798621;77;25708;-68
2021/06/30 08:24:25;;;;;;;11.80;10.10;;;;;;;26.90;57.36;99542.13;1748307;80;25949;-67
2021/06/30 08:26:52;;;;;;;14.13;10.95;;;;;;;26.94;56.93;99540.05;1748718;80;27323;-68
2021/06/30 08:29:20;;;;;;;11.38;10.30;;;;;;;27.23;57.46;99534.45;1803465;77;25695;-67
2021/06/30 08:31:47;;;;;;;12.20;10.63;;;;;;;27.80;58.31;99530.55;1785474;77;25836;-67
2021/06/30 08:34:14;;;;;;;11.85;10.65;;;;;;;28.44;57.04;99532.47;1802628;77;25961;-67
2021/06/30 08:36:41;;;;;;;12.23;11.00;;;;;;;29.00;56.09;99537.24;1812462;77;25676;-70
2021/06/30 08:39:09;;;;;;;10.18;9.20;;;;;;;29.44;53.13;99542.02;1808807;77;27321;-68
2021/06/30 08:41:37;;;;;;;11.43;10.30;;;;;;;29.22;52.22;99543.44;1813041;77;29736;-69
2021/06/30 08:44:05;;;;;;;10.35;9.45;;;;;;;29.20;52.54;99542.50;1816692;77;25841;-68
2021/06/30 08:46:33;;;;;;;10.47;9.50;;;;;;;29.39;52.89;99544.77;1819399;77;26529;-69
2021/06/30 08:49:03;;;;;;;14.07;9.68;;;;;;;29.66;53.23;99541.16;1810262;77;25769;-68
2021/06/30 08:51:30;;;;;;;10.00;8.95;;;;;;;30.01;51.64;99542.39;1816380;77;27313;-71
2021/06/30 08:53:56;;;;;;;12.00;9.38;;;;;;;30.17;51.03;99542.09;1811557;77;26046;-69
2021/06/30 08:56:30;;;;;;;10.60;9.60;;;;;;;30.41;51.38;99538.14;1782358;79;25849;-71
2021/06/30 08:58:53;;;;;;;;;;;;;;;30.69;50.66;99542.32;1789210;78;25875;-70
2021/06/30 09:01:19;;;;;;;9.83;8.93;;;;;;;30.88;48.84;99541.05;1815261;77;25687;-70
2021/06/30 09:03:50;;;;;;;10.43;8.90;;;;;;;30.86;48.62;99539.35;1817058;77;27930;-70
2021/06/30 09:06:14;;;;;;;9.90;8.90;;;;;;;31.09;48.76;99538.56;1792901;77;25890;-70
2021/06/30 09:08:52;;;;;;;10.50;8.48;;;;;;;31.33;48.08;99539.28;1788478;77;25737;-71
2021/06/30 09:11:25;;;;;;;10.00;8.77;;;;;;;31.63;47.84;99539.66;1801209;77;25695;-69
2021/06/30 09:14:21;;;;;;;9.23;8.03;;;;;;;31.91;47.67;99544.33;1822482;77;25848;-69
2021/06/30 09:19:56;;;;;;;10.00;6.33;;;;;;;32.05;44.56;99543.64;1808876;77;25710;-70
2021/06/30 09:22:29;;;;;;;6.90;6.20;;;;;;;31.89;43.76;99548.23;1798498;77;25821;-67
2021/06/30 09:24:57;;;;;;;8.53;6.62;;;;;;;31.68;43.13;99552.22;1774749;78;25829;-68
2021/06/30 09:27:41;;;;;;;8.20;6.67;;;;;;;31.34;42.68;99552.78;1795794;77;25743;-68
2021/06/30 09:30:11;;;;;;;9.08;6.67;;;;;;;31.06;43.45;99539.52;1812841;77;27311;-68
2021/06/30 09:32:54;;;;;;;8.60;6.95;;;;;;;30.89;43.77;99548.20;1806747;76;26508;-69
2021/06/30 09:35:26;;;;;;;9.13;7.28;;;;;;;30.90;44.03;99537.19;1811247;77;26003;-68
2021/06/30 09:37:52;;;;;;;7.90;7.10;;;;;;;31.12;44.01;99538.27;1747301;80;25795;-69
2021/06/30 09:40:20;;;;;;;8.68;7.22;;;;;;;31.42;44.27;99528.09;1733928;80;25786;-69
2021/06/30 09:42:48;;;;;;;10.65;7.03;;;;;;;31.92;43.71;99530.52;1805895;77;27371;-70
2021/06/30 09:45:19;;;;;;;10.72;7.25;;;;;;;32.13;42.75;99541.28;1825588;77;25781;-73
2021/06/30 09:47:50;;;;;;;6.58;6.08;;;;;;;32.45;42.16;99536.08;1813792;77;25833;-72
2021/06/30 09:50:18;;;;;;;8.00;6.33;;;;;;;32.45;40.84;99529.85;1805633;77;27011;-73
2021/06/30 09:52:46;;;;;;;7.95;6.30;;;;;;;32.59;40.42;99531.16;1777848;77;25684;-74
2021/06/30 09:55:31;;;;;;;9.68;6.50;;;;;;;32.56;39.90;99530.72;1809376;77;27317;-74
2021/06/30 09:57:59;;;;;;;8.08;6.85;;;;;;;32.32;39.91;99533.55;1802530;76;25891;-74
2021/06/30 10:00:28;;;;;;;9.70;7.63;;;;;;;31.99;40.23;99542.13;1746269;79;25935;-73
2021/06/30 10:02:57;;;;;;;7.72;6.87;;;;;;;31.87;40.56;99540.95;1735277;80;26582;-74
2021/06/30 10:05:30;;;;;;;8.95;7.53;;;;;;;31.94;40.72;99543.39;1800404;77;25837;-74
2021/06/30 10:08:13;;;;;;;7.47;6.78;;;;;;;31.94;40.69;99533.60;1742547;79;27890;-74
2021/06/30 10:10:40;;;;;;;8.28;6.97;;;;;;;31.98;40.62;99539.17;1791716;77;25848;-73
2021/06/30 10:13:08;;;;;;;8.03;6.72;;;;;;;31.95;40.18;99538.72;1799184;77;25560;-75
2021/06/30 10:15:35;;;;;;;8.85;7.15;;;;;;;31.71;39.79;99529.55;1807782;77;26534;-75
2021/06/30 10:18:04;;;;;;;10.23;6.97;;;;;;;31.62;40.66;99524.78;1732995;80;26522;-75
2021/06/30 10:20:30;;;;;;;8.13;7.10;;;;;;;31.91;40.99;99528.34;1802276;78;28084;-73
2021/06/30 10:22:57;;;;;;;8.88;6.50;;;;;;;32.15;40.14;99531.80;1810567;77;26713;-74
2021/06/30 10:25:24;;;;;;;10.23;6.80;;;;;;;32.39;40.26;99535.98;1819872;77;26561;-75
2021/06/30 10:27:53;;;;;;;9.90;7.33;;;;;;;32.37;38.84;99529.46;1813089;76;25748;-71
2021/06/30 10:30:20;;;;;;;8.33;7.00;;;;;;;32.15;39.48;99519.98;1808107;77;25849;-74
2021/06/30 10:32:57;;;;;;;8.05;7.22;;;;;;;32.00;39.26;99520.53;1819658;78;27331;-74
2021/06/30 10:35:26;;;;;;;7.42;6.72;;;;;;;31.98;39.81;99521.00;1804735;77;27245;-74
2021/06/30 10:37:56;;;;;;;8.88;7.08;;;;;;;31.91;39.59;99521.36;1793003;77;25905;-73
2021/06/30 10:40:24;;;;;;;9.45;7.00;;;;;;;31.65;39.66;99512.63;1808625;77;25695;-73
2021/06/30 10:43:13;;;;;;;7.43;6.50;;;;;;;31.56;40.16;99515.48;1811363;76;26088;-73
2021/06/30 10:45:42;;;;;;;9.45;7.03;;;;;;;31.39;39.46;99515.05;1808185;77;27982;-75
2021/06/30 10:48:14;;;;;;;6.97;6.33;;;;;;;31.13;40.03;99509.87;1819490;77;26147;-75
2021/06/30 10:50:46;;;;;;;6.35;5.75;;;;;;;31.45;40.78;99499.21;1735521;80;26379;-74
2021/06/30 10:53:29;;;;;;;7.35;6.40;;;;;;;31.80;40.19;99502.30;1752007;80;25803;-73
2021/06/30 10:56:02;;;;;;;6.95;5.95;;;;;;;32.16;39.53;99504.77;1769310;80;26068;-73
2021/06/30 10:58:32;;;;;;;7.33;5.97;;;;;;;32.57;39.16;99500.06;1738155;80;27310;-73
2021/06/30 11:01:04;;;;;;;10.32;5.80;;;;;;;33.10;38.42;99505.47;1726170;80;25865;-75
2021/06/30 11:03:50;;;;;;;11.10;6.55;;;;;;;33.41;37.49;99506.39;1760665;80;26202;-75
2021/06/30 11:06:27;;;;;;;7.08;6.33;;;;;;;33.69;37.44;99500.45;1782610;78;25815;-74
2021/06/30 11:09:07;;;;;;;7.40;6.10;;;;;;;34.06;37.06;99497.87;1778786;78;25762;-73
2021/06/30 11:11:53;;;;;;;11.45;6.50;;;;;;;33.83;35.84;99496.83;1786581;79;27268;-73
2021/06/30 11:14:23;;;;;;;7.30;6.03;;;;;;;33.30;35.59;99499.97;1752952;79;25709;-73
2021/06/30 11:16:50;;;;;;;;;;;;;;;32.65;36.06;99497.06;1795583;77;25884;-74
2021/06/30 11:19:22;;;;;;;7.78;6.58;;;;;;;32.09;36.10;99505.73;1803580;77;26179;-73
2021/06/30 11:22:03;;;;;;;7.42;6.40;;;;;;;31.59;36.95;99498.54;1806477;77;26392;-74
2021/06/30 11:24:47;;;;;;;10.88;6.97;;;;;;;31.10;37.65;99500.39;1788884;77;27426;-74
2021/06/30 11:27:35;;;;;;;10.68;7.92;;;;;;;30.73;38.62;99499.07;1778965;77;25992;-72
2021/06/30 11:30:18;;;;;;;8.35;7.47;;;;;;;30.49;39.43;99496.13;1801643;78;25841;-73
2021/06/30 11:32:46;;;;;;;8.50;7.42;;;;;;;30.18;40.18;99499.80;1751074;80;25708;-73